Time;durP1;ratioP1;P1;durP2;ratioP2;P2;SDS_P1;SDS_P2;PMS_P1;PMS_P2;Temp;Humidity;BMP_temperature;BMP_pressure;BME280_temperature;BME280_humidity;BME280_pressure;Samples;Min_cycle;Max_cycle;Signal;HPM_P1;HPM_P2
2023/05/23 00:00:03;;;;;;;27.27;20.65;;;;;;;14.69;96.45;101812.34;5032540;28;20056;-85
2023/05/23 00:02:29;;;;;;;29.27;21.75;;;;;;;14.68;96.10;101814.19;5034520;28;20025;-85
2023/05/23 00:04:57;;;;;;;31.33;22.23;;;;;;;14.64;96.86;101809.19;5034562;28;20025;-85
2023/05/23 00:07:22;;;;;;;27.58;20.75;;;;;;;14.69;96.71;101805.22;5034362;28;20043;-85
2023/05/23 00:09:48;;;;;;;28.90;22.25;;;;;;;14.67;97.41;101800.94;5034624;28;20034;-84
2023/05/23 00:12:13;;;;;;;26.65;20.88;;;;;;;14.68;97.19;101802.66;5028439;28;20482;-84
2023/05/23 00:14:39;;;;;;;30.15;19.45;;;;;;;14.67;96.76;101809.84;5034070;28;20083;-85
2023/05/23 00:17:09;;;;;;;23.83;19.15;;;;;;;14.65;97.62;101809.06;5033661;28;20025;-85
2023/05/23 00:19:35;;;;;;;24.00;19.40;;;;;;;14.63;97.86;101818.19;5033391;28;20050;-84
2023/05/23 00:22:00;;;;;;;23.48;18.25;;;;;;;14.67;97.34;101808.97;5032537;28;20387;-85
2023/05/23 00:24:26;;;;;;;22.42;17.38;;;;;;;14.58;96.90;101799.81;5033772;28;20041;-85
2023/05/23 00:26:51;;;;;;;21.33;18.02;;;;;;;14.64;97.38;101825.22;5032380;28;20029;-85
2023/05/23 00:29:16;;;;;;;21.25;15.93;;;;;;;14.63;96.59;101826.22;5034124;28;20104;-85
2023/05/23 00:31:45;;;;;;;20.42;15.18;;;;;;;14.63;97.00;101828.91;5032878;28;20026;-85
2023/05/23 00:34:14;;;;;;;18.33;15.65;;;;;;;14.66;95.99;101824.16;5051649;28;20020;-85
2023/05/23 00:36:40;;;;;;;20.50;15.35;;;;;;;14.68;96.51;101829.38;5049453;28;20056;-84
2023/05/23 00:39:06;;;;;;;18.38;14.98;;;;;;;14.65;96.81;101821.59;5058804;28;20040;-84
2023/05/23 00:41:32;;;;;;;20.02;15.02;;;;;;;14.61;97.48;101821.84;5057864;28;20017;-83
2023/05/23 00:43:58;;;;;;;18.83;14.07;;;;;;;14.63;96.47;101826.22;5034161;28;20025;-84
2023/05/23 00:46:25;;;;;;;18.50;13.52;;;;;;;14.59;96.56;101818.44;5033009;28;20503;-84
2023/05/23 00:48:50;;;;;;;16.30;13.30;;;;;;;14.64;96.50;101826.09;5033568;28;20044;-84
2023/05/23 00:51:15;;;;;;;17.55;13.55;;;;;;;14.61;96.38;101826.34;5015211;28;20021;-84
2023/05/23 00:53:42;;;;;;;19.88;14.85;;;;;;;14.57;96.47;101820.34;5027556;28;20029;-84
2023/05/23 00:56:07;;;;;;;17.45;14.20;;;;;;;14.60;95.98;101828.19;5032871;28;20545;-85
2023/05/23 00:58:34;;;;;;;21.17;14.93;;;;;;;14.55;96.44;101832.97;5034170;28;20029;-85
2023/05/23 01:00:59;;;;;;;17.55;13.95;;;;;;;14.57;95.87;101835.53;5035221;28;20022;-84
2023/05/23 01:03:27;;;;;;;19.77;14.63;;;;;;;14.53;95.57;101842.09;5034990;28;20105;-84
2023/05/23 01:05:54;;;;;;;18.58;13.80;;;;;;;14.52;95.20;101841.25;5026725;28;20029;-84
2023/05/23 01:08:20;;;;;;;18.77;15.20;;;;;;;14.47;96.20;101840.75;5034452;28;20033;-84
2023/05/23 01:10:45;;;;;;;22.88;15.27;;;;;;;14.46;95.69;101839.03;5029104;28;20026;-85
2023/05/23 01:13:30;;;;;;;25.05;16.23;;;;;;;14.50;95.32;101847.69;5033938;28;20075;-84
2023/05/23 01:16:06;;;;;;;20.63;15.73;;;;;;;14.40;95.10;101843.03;5033577;28;20108;-84
2023/05/23 01:19:01;;;;;;;23.08;16.80;;;;;;;14.49;94.44;101849.50;5031371;28;20041;-84
2023/05/23 01:21:26;;;;;;;24.17;15.23;;;;;;;14.38;94.56;101839.63;5033787;28;20029;-84
2023/05/23 01:24:17;;;;;;;25.50;14.00;;;;;;;14.43;94.23;101847.28;5032858;28;20024;-84
2023/05/23 01:27:04;;;;;;;22.88;14.95;;;;;;;14.35;94.16;101855.88;5026202;28;20091;-84
2023/05/23 01:29:41;;;;;;;22.38;13.45;;;;;;;14.34;93.84;101854.22;5033559;28;20095;-84
2023/05/23 01:32:10;;;;;;;22.02;13.75;;;;;;;14.24;93.89;101851.38;5027630;28;20030;-84
2023/05/23 01:34:37;;;;;;;19.05;13.23;;;;;;;14.28;93.85;101856.50;5029813;28;20040;-84
2023/05/23 01:37:07;;;;;;;19.48;11.98;;;;;;;14.30;93.54;101862.56;5033537;28;20036;-84
2023/05/23 01:39:32;;;;;;;22.02;14.20;;;;;;;14.27;93.93;101866.31;5017525;28;20060;-84
2023/05/23 01:41:58;;;;;;;21.20;13.63;;;;;;;14.30;93.56;101868.75;5016402;28;20026;-84
2023/05/23 01:44:23;;;;;;;20.27;13.07;;;;;;;14.27;93.97;101860.13;5029784;28;20279;-84
2023/05/23 01:46:48;;;;;;;21.30;15.68;;;;;;;14.23;94.80;101867.53;5033471;28;20017;-84
2023/05/23 01:49:15;;;;;;;25.42;15.98;;;;;;;14.19;95.00;101858.91;5023329;28;20086;-84
2023/05/23 01:51:41;;;;;;;25.80;16.17;;;;;;;14.18;94.99;101857.19;5034976;28;20021;-84
2023/05/23 01:54:07;;;;;;;24.02;15.77;;;;;;;14.19;95.41;101874.09;5037561;28;20029;-84
2023/05/23 01:56:33;;;;;;;27.35;16.55;;;;;;;14.16;95.11;101869.81;5039084;28;20033;-84
2023/05/23 01:59:00;;;;;;;23.90;15.77;;;;;;;14.22;95.32;101866.69;5042507;28;20075;-84
2023/05/23 02:01:26;;;;;;;28.17;16.67;;;;;;;14.18;95.35;101861.69;5044367;28;20053;-84
2023/05/23 02:03:51;;;;;;;24.85;17.13;;;;;;;14.21;95.49;101869.47;5050387;28;20083;-84
2023/05/23 02:06:17;;;;;;;28.20;16.90;;;;;;;14.19;95.82;101874.94;5049681;28;20022;-84
2023/05/23 02:08:42;;;;;;;23.33;16.35;;;;;;;14.20;95.63;101875.78;5037696;28;20129;-85
2023/05/23 02:11:07;;;;;;;28.57;15.73;;;;;;;14.21;95.15;101880.16;5032071;28;20021;-85
2023/05/23 02:13:33;;;;;;;28.45;16.05;;;;;;;14.20;95.65;101881.97;5037817;28;20274;-84
2023/05/23 02:15:58;;;;;;;27.05;16.55;;;;;;;14.15;96.10;101875.28;5040388;28;20021;-84
2023/05/23 02:18:25;;;;;;;26.48;16.17;;;;;;;14.04;96.20;101865.41;5042278;28;20110;-83
2023/05/23 02:20:50;;;;;;;24.25;16.17;;;;;;;14.05;96.74;101867.09;5042167;28;20356;-84
2023/05/23 02:23:15;;;;;;;31.17;16.55;;;;;;;14.11;97.29;101890.69;5042436;28;20033;-83
2023/05/23 02:25:41;;;;;;;27.73;16.25;;;;;;;14.12;97.02;101894.19;5043279;28;20029;-84
2023/05/23 02:28:06;;;;;;;24.13;15.75;;;;;;;14.13;97.40;101899.44;5041376;28;20076;-84
2023/05/23 02:30:31;;;;;;;26.80;15.65;;;;;;;14.13;97.31;101893.25;5038692;28;20032;-84
2023/05/23 02:32:57;;;;;;;26.17;16.23;;;;;;;14.14;97.94;101906.50;5038609;28;20444;-85
2023/05/23 02:35:22;;;;;;;28.35;15.52;;;;;;;14.16;96.77;101896.53;5027797;28;20108;-85
2023/05/23 02:37:47;;;;;;;29.63;16.37;;;;;;;14.17;97.33;101898.25;5037334;28;20025;-85
2023/05/23 02:40:13;;;;;;;26.20;14.98;;;;;;;14.14;97.25;101897.59;5036937;28;20276;-84
2023/05/23 02:42:38;;;;;;;22.88;14.57;;;;;;;14.13;97.22;101893.25;5037367;28;20448;-84
2023/05/23 02:45:04;;;;;;;22.05;13.32;;;;;;;14.11;96.85;101889.84;5036784;28;20036;-84
2023/05/23 02:47:29;;;;;;;21.33;12.93;;;;;;;14.11;97.20;101900.53;5038628;28;20034;-85
2023/05/23 02:49:54;;;;;;;22.35;12.77;;;;;;;14.10;96.34;101902.31;5038463;28;20019;-84
2023/05/23 02:52:19;;;;;;;21.85;12.23;;;;;;;14.05;96.70;101897.34;5036256;28;20029;-85
2023/05/23 02:54:45;;;;;;;17.80;11.48;;;;;;;14.02;96.78;101884.22;5028989;28;20476;-84
2023/05/23 02:57:10;;;;;;;16.67;10.95;;;;;;;14.05;96.18;101897.34;5034316;28;20022;-84
2023/05/23 02:59:35;;;;;;;15.40;9.95;;;;;;;14.05;95.69;101893.81;5037767;28;20026;-84
2023/05/23 03:02:01;;;;;;;14.45;9.77;;;;;;;14.04;95.90;101900.13;5038044;28;20100;-84
2023/05/23 03:04:26;;;;;;;21.05;9.60;;;;;;;14.04;95.76;101903.66;5035882;28;20029;-84
2023/05/23 03:06:53;;;;;;;15.45;8.68;;;;;;;14.07;94.74;101894.53;5038152;28;20017;-84
2023/05/23 03:09:18;;;;;;;12.40;8.70;;;;;;;14.05;95.38;101894.69;5038359;28;20029;-84
2023/05/23 03:11:44;;;;;;;14.50;9.02;;;;;;;14.06;95.05;101896.38;5037793;28;20072;-84
2023/05/23 03:14:09;;;;;;;11.32;8.10;;;;;;;14.03;95.14;101899.25;5037274;28;20048;-84
2023/05/23 03:16:34;;;;;;;12.93;7.63;;;;;;;14.04;95.14;101897.47;5038277;28;20032;-84
2023/05/23 03:19:00;;;;;;;12.77;7.53;;;;;;;14.04;95.22;101898.31;5038106;28;20041;-84
2023/05/23 03:21:25;;;;;;;12.05;7.53;;;;;;;14.02;95.67;101902.91;5039690;28;20429;-84
2023/05/23 03:23:50;;;;;;;11.30;7.30;;;;;;;14.03;95.47;101901.09;5039143;28;20018;-84
2023/05/23 03:26:16;;;;;;;12.50;8.13;;;;;;;14.03;95.02;101898.41;5052982;28;20589;-84
2023/05/23 03:28:41;;;;;;;10.60;7.50;;;;;;;13.98;95.24;101892.56;5059475;28;20367;-83
2023/05/23 03:31:06;;;;;;;9.13;6.90;;;;;;;14.02;95.03;101896.69;5059646;28;20029;-83
2023/05/23 03:33:32;;;;;;;10.93;7.10;;;;;;;14.02;95.45;101910.94;5059637;28;20029;-84
2023/05/23 03:35:57;;;;;;;11.00;7.43;;;;;;;14.04;95.46;101913.50;5058586;28;20045;-84
2023/05/23 03:38:22;;;;;;;10.48;7.35;;;;;;;14.04;95.34;101909.00;5059487;28;20056;-84
2023/05/23 03:40:48;;;;;;;10.50;7.28;;;;;;;14.02;95.40;101908.25;5058856;28;20017;-83
2023/05/23 03:43:13;;;;;;;10.10;7.30;;;;;;;14.09;94.76;101914.00;5047126;28;20049;-84
2023/05/23 03:45:38;;;;;;;9.40;7.07;;;;;;;14.09;94.47;101907.78;5037337;28;20402;-84
2023/05/23 03:48:04;;;;;;;14.88;8.48;;;;;;;14.04;95.68;101909.00;5037736;28;20037;-84
2023/05/23 03:50:30;;;;;;;12.55;8.73;;;;;;;14.07;95.48;101907.91;5036510;28;20483;-84
2023/05/23 03:52:55;;;;;;;16.17;8.77;;;;;;;14.08;95.24;101909.59;5024886;28;20117;-84
2023/05/23 03:55:21;;;;;;;15.52;9.20;;;;;;;14.10;95.41;101918.34;5034898;28;20382;-84
2023/05/23 03:57:52;;;;;;;14.05;8.60;;;;;;;14.10;95.20;101923.69;5041208;28;20028;-84
2023/05/23 04:00:18;;;;;;;12.95;8.20;;;;;;;14.06;95.40;101915.06;5053673;28;20025;-84
2023/05/23 04:02:45;;;;;;;14.85;8.35;;;;;;;14.06;95.29;101919.56;5036661;28;20456;-84
2023/05/23 04:05:11;;;;;;;16.20;8.82;;;;;;;14.11;95.39;101925.41;5035249;28;20087;-84
2023/05/23 04:07:36;;;;;;;11.48;8.18;;;;;;;14.09;95.25;101916.66;5037090;28;20022;-84
2023/05/23 04:10:02;;;;;;;13.15;8.13;;;;;;;14.08;95.21;101922.97;5036002;28;20041;-84
2023/05/23 04:12:31;;;;;;;13.40;8.18;;;;;;;14.09;95.73;101930.03;5037258;28;20041;-84
2023/05/23 04:14:57;;;;;;;14.50;8.13;;;;;;;14.02;95.14;101918.06;5036976;28;20061;-84
2023/05/23 04:17:23;;;;;;;11.82;8.15;;;;;;;14.00;95.46;101930.69;5047693;28;20033;-84
2023/05/23 04:19:49;;;;;;;12.75;8.15;;;;;;;14.00;95.50;101931.53;5038877;28;20056;-84
2023/05/23 04:22:15;;;;;;;13.65;8.20;;;;;;;13.98;95.87;101928.13;5036598;28;20037;-84
2023/05/23 04:24:40;;;;;;;14.80;8.30;;;;;;;13.99;95.90;101929.84;5038658;28;20041;-85
2023/05/23 04:27:06;;;;;;;12.88;8.73;;;;;;;14.03;95.49;101936.66;5036976;28;20024;-84
2023/05/23 04:29:32;;;;;;;15.35;8.55;;;;;;;14.04;95.44;101943.72;5021517;28;20356;-84
2023/05/23 04:31:57;;;;;;;17.10;9.65;;;;;;;14.03;95.59;101938.47;5036354;28;20069;-84
2023/05/23 04:34:22;;;;;;;17.73;9.68;;;;;;;14.00;95.73;101946.72;5036969;28;20079;-84
2023/05/23 04:36:48;;;;;;;19.38;10.48;;;;;;;13.96;95.77;101940.75;5038584;28;20444;-84
2023/05/23 04:39:14;;;;;;;17.45;9.80;;;;;;;13.92;96.08;101938.41;5023465;28;20112;-84
2023/05/23 04:41:41;;;;;;;18.48;9.57;;;;;;;13.97;96.24;101960.28;5037304;28;20028;-84
2023/05/23 04:44:08;;;;;;;20.83;9.60;;;;;;;13.98;96.31;101956.66;5036075;28;20037;-84
2023/05/23 04:46:35;;;;;;;19.80;10.02;;;;;;;13.92;95.69;101941.09;5036735;28;20033;-84
2023/05/23 04:49:01;;;;;;;24.23;10.30;;;;;;;13.98;96.13;101962.00;5036549;28;20030;-84
2023/05/23 04:51:26;;;;;;;23.60;10.98;;;;;;;13.99;95.32;101966.38;5036442;28;20080;-83
2023/05/23 04:53:52;;;;;;;27.83;12.25;;;;;;;13.95;95.51;101951.56;5034207;28;20080;-84
2023/05/23 04:56:19;;;;;;;25.55;11.82;;;;;;;13.97;96.24;101965.63;5069656;28;20033;-84
2023/05/23 04:58:48;;;;;;;27.30;12.18;;;;;;;13.95;95.85;101973.75;5035974;28;20025;-84
2023/05/23 05:01:13;;;;;;;29.50;13.07;;;;;;;13.93;95.89;101967.69;5024895;28;20029;-84
2023/05/23 05:03:39;;;;;;;22.58;11.88;;;;;;;13.95;95.53;101976.44;5035018;28;20108;-84
2023/05/23 05:06:05;;;;;;;28.02;11.63;;;;;;;13.95;95.78;101971.09;5035694;28;20577;-84
2023/05/23 05:08:31;;;;;;;23.55;11.10;;;;;;;13.92;95.92;101979.31;5018830;28;20026;-84
2023/05/23 05:10:56;;;;;;;31.17;12.60;;;;;;;13.93;95.71;101978.38;5035690;28;20026;-84
2023/05/23 05:13:21;;;;;;;25.23;12.18;;;;;;;13.88;95.65;101984.03;5034129;28;20037;-84
2023/05/23 05:15:47;;;;;;;23.50;12.23;;;;;;;13.89;95.57;101984.91;5030001;28;20026;-84
2023/05/23 05:18:12;;;;;;;25.40;12.10;;;;;;;13.84;95.38;101969.22;5015211;28;20053;-84
2023/05/23 05:20:38;;;;;;;29.35;12.48;;;;;;;13.93;95.31;101993.56;5035590;28;20014;-84
2023/05/23 05:23:03;;;;;;;26.55;12.73;;;;;;;13.85;95.37;101986.94;5023641;28;20112;-84
2023/05/23 05:25:31;;;;;;;25.50;13.13;;;;;;;13.86;94.80;101999.31;5025640;28;20030;-84
2023/05/23 05:28:00;;;;;;;28.15;12.40;;;;;;;13.85;94.47;101997.59;5031299;28;20068;-84
2023/05/23 05:30:26;;;;;;;27.33;11.73;;;;;;;13.87;94.77;101997.50;5034703;28;20087;-84
2023/05/23 05:32:51;;;;;;;23.15;12.02;;;;;;;13.82;94.66;102000.53;5033730;28;20029;-85
2023/05/23 05:35:17;;;;;;;30.50;11.50;;;;;;;13.82;94.65;102000.53;5036810;28;20029;-84
2023/05/23 05:37:42;;;;;;;24.75;11.32;;;;;;;13.69;93.69;101989.03;5046949;28;20024;-84
2023/05/23 05:40:08;;;;;;;26.73;10.93;;;;;;;13.76;93.96;102019.66;5054968;28;20052;-85
2023/05/23 05:42:34;;;;;;;26.40;10.93;;;;;;;13.76;93.52;102021.47;5042291;28;20099;-84
2023/05/23 05:44:59;;;;;;;27.60;11.38;;;;;;;13.72;93.29;102011.97;5032485;28;20543;-84
2023/05/23 05:47:24;;;;;;;26.40;10.30;;;;;;;13.67;92.91;102001.59;5033704;28;20064;-83
2023/05/23 05:49:50;;;;;;;24.98;10.18;;;;;;;13.71;93.18;102021.78;5032023;28;20021;-83
2023/05/23 05:52:15;;;;;;;24.02;9.88;;;;;;;13.75;92.79;102020.59;5033161;28;20384;-84
2023/05/23 05:54:40;;;;;;;28.05;9.80;;;;;;;13.72;93.22;102028.81;5029603;28;20028;-84
2023/05/23 05:57:05;;;;;;;23.77;9.45;;;;;;;13.62;92.85;102017.97;5031906;28;20026;-85
2023/05/23 05:59:31;;;;;;;20.58;9.07;;;;;;;13.68;92.78;102028.19;5033118;28;20045;-85
2023/05/23 06:01:56;;;;;;;25.05;8.90;;;;;;;13.63;92.87;102030.34;5031661;28;20591;-84
2023/05/23 06:04:22;;;;;;;24.15;8.63;;;;;;;13.55;92.09;102029.19;5031807;28;20033;-84
2023/05/23 06:06:48;;;;;;;23.25;9.95;;;;;;;13.49;92.11;102028.66;5030860;28;20034;-85
2023/05/23 06:09:13;;;;;;;22.52;8.65;;;;;;;13.52;92.12;102035.56;5032458;28;20029;-84
2023/05/23 06:11:39;;;;;;;18.92;8.13;;;;;;;13.50;91.58;102043.69;5031404;28;20063;-86
2023/05/23 06:14:05;;;;;;;24.00;10.07;;;;;;;13.46;92.10;102046.69;5032199;28;20045;-85
2023/05/23 06:16:31;;;;;;;16.48;7.85;;;;;;;13.47;91.71;102056.41;5023714;28;20391;-85
2023/05/23 06:18:56;;;;;;;16.27;7.45;;;;;;;13.46;91.60;102052.88;5030362;28;20042;-85
2023/05/23 06:21:21;;;;;;;17.90;7.65;;;;;;;13.45;91.99;102039.63;5031509;28;20069;-84
2023/05/23 06:23:47;;;;;;;18.25;7.72;;;;;;;13.47;92.04;102049.25;5032071;28;20069;-84
2023/05/23 06:26:15;;;;;;;15.52;7.03;;;;;;;13.43;91.23;102053.09;5030299;28;20045;-84
2023/05/23 06:28:40;;;;;;;15.13;6.97;;;;;;;13.22;91.61;102023.41;5023460;28;20022;-84
2023/05/23 06:31:08;;;;;;;11.05;6.10;;;;;;;13.30;91.35;102038.84;5031192;28;20041;-84
2023/05/23 06:33:34;;;;;;;14.88;6.22;;;;;;;13.47;90.18;102064.41;5032766;28;20034;-83
2023/05/23 06:35:59;;;;;;;9.45;5.88;;;;;;;13.29;90.46;102042.50;5030642;28;20195;-83
2023/05/23 06:38:29;;;;;;;12.02;5.65;;;;;;;13.42;89.85;102066.53;5019804;28;20053;-83
2023/05/23 06:40:55;;;;;;;14.85;5.88;;;;;;;13.43;89.93;102066.44;5014137;28;20554;-83
2023/05/23 06:43:20;;;;;;;14.40;5.55;;;;;;;13.45;89.74;102079.66;5020363;28;20108;-83
2023/05/23 06:45:48;;;;;;;16.00;5.53;;;;;;;13.43;89.59;102073.59;5041056;28;20029;-84
2023/05/23 06:48:14;;;;;;;11.38;5.78;;;;;;;13.46;90.04;102082.25;5035712;28;20124;-83
2023/05/23 06:50:40;;;;;;;11.32;5.88;;;;;;;13.37;89.21;102079.34;5037382;28;20130;-83
2023/05/23 06:53:05;;;;;;;11.63;5.88;;;;;;;13.41;89.06;102095.03;5042619;28;20124;-84
2023/05/23 06:55:32;;;;;;;12.10;5.82;;;;;;;13.42;89.40;102101.22;5029680;28;20132;-83
2023/05/23 06:58:03;;;;;;;15.93;6.00;;;;;;;13.33;89.40;102095.56;5036418;28;20101;-83
2023/05/23 07:00:30;;;;;;;15.00;6.13;;;;;;;13.33;89.41;102100.91;5035470;28;20079;-84
2023/05/23 07:02:55;;;;;;;12.75;5.22;;;;;;;13.33;89.01;102111.56;5035513;28;20042;-84
2023/05/23 07:05:21;;;;;;;18.55;5.85;;;;;;;13.38;89.45;102113.09;5035168;28;20032;-84
2023/05/23 07:07:46;;;;;;;15.02;6.00;;;;;;;13.35;88.43;102119.47;5036619;28;20047;-84
2023/05/23 07:10:12;;;;;;;15.77;5.60;;;;;;;13.35;88.04;102107.97;5035156;28;20463;-83
2023/05/23 07:12:37;;;;;;;13.18;5.28;;;;;;;13.29;87.34;102104.72;5034552;28;20463;-83
2023/05/23 07:15:03;;;;;;;15.68;6.07;;;;;;;13.28;86.63;102110.16;5036428;28;20052;-84
2023/05/23 07:17:31;;;;;;;15.00;5.63;;;;;;;13.32;85.92;102117.88;5037238;28;20073;-82
2023/05/23 07:19:57;;;;;;;15.65;5.95;;;;;;;13.36;85.23;102112.34;5035638;28;20379;-83
2023/05/23 07:22:22;;;;;;;15.75;6.10;;;;;;;13.36;85.27;102117.69;5036173;28;20017;-85
2023/05/23 07:24:47;;;;;;;16.40;5.88;;;;;;;13.42;85.18;102125.25;5036153;28;20384;-84
2023/05/23 07:27:13;;;;;;;10.73;5.50;;;;;;;13.47;84.91;102124.00;5040783;28;20029;-83
2023/05/23 07:29:41;;;;;;;17.27;5.80;;;;;;;13.54;83.78;102128.88;5034169;28;20029;-83
2023/05/23 07:32:06;;;;;;;17.42;5.40;;;;;;;13.53;81.66;102121.84;5021723;28;20026;-82
2023/05/23 07:34:31;;;;;;;12.00;5.53;;;;;;;13.57;81.04;102118.00;5036958;28;20029;-83
2023/05/23 07:36:56;;;;;;;15.02;6.22;;;;;;;13.63;80.94;102129.13;5037886;28;20037;-83
2023/05/23 07:39:23;;;;;;;11.93;5.55;;;;;;;13.78;80.89;102115.66;5040520;28;20029;-84
2023/05/23 07:41:49;;;;;;;16.95;6.47;;;;;;;13.97;78.54;102142.81;5040818;28;20029;-84
2023/05/23 07:44:15;;;;;;;14.13;5.28;;;;;;;14.07;78.86;102132.28;5040154;28;20036;-84
2023/05/23 07:46:40;;;;;;;15.55;6.10;;;;;;;14.05;76.50;102131.56;5039087;28;20395;-84
2023/05/23 07:49:06;;;;;;;13.55;5.72;;;;;;;14.11;76.08;102133.81;5040433;28;20037;-83
2023/05/23 07:51:31;;;;;;;19.70;6.22;;;;;;;14.14;75.38;102135.38;5036975;28;20038;-83
2023/05/23 07:53:59;;;;;;;16.02;5.75;;;;;;;14.02;76.13;102119.28;5039974;28;20079;-83
2023/05/23 07:56:25;;;;;;;16.00;6.30;;;;;;;14.17;76.31;102144.06;5042142;28;20037;-83
2023/05/23 07:58:51;;;;;;;17.10;6.40;;;;;;;14.14;75.54;102152.28;5040739;28;20277;-82
2023/05/23 08:01:17;;;;;;;17.13;6.70;;;;;;;14.16;76.03;102158.38;5040487;28;20041;-82
2023/05/23 08:03:42;;;;;;;19.15;6.30;;;;;;;14.14;75.93;102151.41;5040644;28;20013;-82
2023/05/23 08:06:08;;;;;;;19.38;6.32;;;;;;;14.16;76.06;102152.19;5039794;28;20052;-82
2023/05/23 08:08:34;;;;;;;14.88;6.15;;;;;;;14.23;75.93;102162.31;5040148;28;20028;-82
2023/05/23 08:11:00;;;;;;;16.02;6.25;;;;;;;14.31;76.43;102166.28;5039455;28;20131;-83
2023/05/23 08:13:26;;;;;;;14.15;6.35;;;;;;;14.29;74.79;102150.34;5038677;28;20511;-82
2023/05/23 08:16:00;;;;;;;13.90;6.63;;;;;;;14.44;76.58;102159.94;5030028;28;21068;-84
2023/05/23 08:18:26;;;;;;;19.20;5.55;;;;;;;14.53;76.05;102161.06;5040454;28;20049;-82
2023/05/23 08:20:52;;;;;;;12.57;6.18;;;;;;;14.58;74.11;102156.25;5038995;28;20067;-84
2023/05/23 08:23:17;;;;;;;14.60;6.13;;;;;;;14.70;75.02;102151.84;5033042;28;20387;-84
2023/05/23 08:25:43;;;;;;;15.30;5.82;;;;;;;14.75;73.84;102159.53;5036763;28;20048;-84
2023/05/23 08:28:08;;;;;;;10.23;5.90;;;;;;;14.73;73.00;102159.66;5037319;28;20040;-84
2023/05/23 08:30:33;;;;;;;18.90;6.35;;;;;;;14.74;73.83;102149.84;5037842;28;20446;-84
2023/05/23 08:33:03;;;;;;;14.07;6.20;;;;;;;14.79;73.22;102158.38;5036181;28;20426;-84
2023/05/23 08:35:32;;;;;;;12.55;5.97;;;;;;;14.77;72.74;102153.13;5034644;28;20026;-84
2023/05/23 08:37:58;;;;;;;16.80;5.65;;;;;;;14.85;73.51;102167.75;5037124;28;20030;-84
2023/05/23 08:40:26;;;;;;;14.82;6.05;;;;;;;14.70;74.17;102134.97;5037261;28;20108;-83
2023/05/23 08:42:51;;;;;;;19.73;5.80;;;;;;;14.87;75.01;102163.13;5034255;28;20023;-83
2023/05/23 08:45:17;;;;;;;13.07;5.80;;;;;;;14.94;74.68;102165.25;5034963;28;20033;-83
2023/05/23 08:47:44;;;;;;;13.45;5.65;;;;;;;14.90;74.02;102166.44;5034249;28;20487;-83
2023/05/23 08:50:13;;;;;;;13.27;5.55;;;;;;;14.84;74.39;102144.63;5034606;28;20025;-83
2023/05/23 08:52:51;;;;;;;14.15;5.00;;;;;;;14.95;74.19;102156.28;5034254;28;20080;-83
2023/05/23 08:55:16;;;;;;;12.75;4.63;;;;;;;15.03;74.59;102178.91;5034134;28;20030;-83
2023/05/23 08:57:44;;;;;;;17.45;5.07;;;;;;;15.11;74.31;102181.88;5033582;28;20020;-83
2023/05/23 09:00:13;;;;;;;18.27;5.03;;;;;;;14.94;75.01;102140.34;5034973;28;20026;-83
2023/05/23 09:02:39;;;;;;;;;;;;;;;15.36;75.80;102187.09;5042241;28;20036;-84
2023/05/23 09:05:04;;;;;;;18.98;5.05;;;;;;;15.22;74.33;102189.97;5038813;28;19913;-83
2023/05/23 09:07:30;;;;;;;13.80;5.30;;;;;;;15.36;74.32;102181.72;5034277;28;20033;-84
2023/05/23 09:09:55;;;;;;;11.63;5.07;;;;;;;15.44;74.14;102196.38;5034269;28;20029;-85
2023/05/23 09:12:23;;;;;;;11.90;5.25;;;;;;;15.48;74.29;102179.09;5033396;28;20498;-83
2023/05/23 09:14:49;;;;;;;9.40;4.43;;;;;;;15.72;73.69;102200.44;5033190;28;20121;-84
2023/05/23 09:17:17;;;;;;;9.75;4.65;;;;;;;15.89;74.25;102193.84;5034173;28;20057;-83
2023/05/23 09:19:42;;;;;;;11.40;4.80;;;;;;;15.97;72.59;102185.19;5033923;28;20671;-83
2023/05/23 09:22:08;;;;;;;12.60;4.85;;;;;;;16.11;73.09;102186.81;5034452;28;20028;-83
2023/05/23 09:24:35;;;;;;;13.73;5.03;;;;;;;16.06;70.00;102177.28;5033059;28;20060;-83
2023/05/23 09:27:02;;;;;;;10.57;3.95;;;;;;;16.04;69.70;102192.63;5033030;28;20025;-84
2023/05/23 09:29:27;;;;;;;13.10;3.47;;;;;;;16.11;66.74;102197.53;5033955;28;20380;-84
2023/05/23 09:31:59;;;;;;;10.40;3.28;;;;;;;16.17;67.64;102199.69;5034069;28;20021;-84
2023/05/23 09:34:25;;;;;;;12.05;3.60;;;;;;;16.17;66.37;102199.69;5034269;28;20112;-84
2023/05/23 09:36:54;;;;;;;10.68;2.85;;;;;;;16.16;66.07;102201.53;5034248;28;20049;-84
2023/05/23 09:39:19;;;;;;;10.57;3.35;;;;;;;16.05;64.12;102197.03;5033987;28;20021;-84
2023/05/23 09:41:47;;;;;;;10.77;3.25;;;;;;;16.12;63.62;102194.72;5033331;28;20175;-84
2023/05/23 09:44:13;;;;;;;14.93;3.50;;;;;;;16.03;64.48;102196.28;5034093;28;20114;-84
2023/05/23 09:46:38;;;;;;;10.75;3.35;;;;;;;16.04;63.35;102200.69;5035390;28;20058;-84
2023/05/23 09:49:14;;;;;;;11.20;2.92;;;;;;;16.21;64.94;102193.16;5035227;28;20057;-84
2023/05/23 09:51:40;;;;;;;14.13;3.45;;;;;;;16.38;61.96;102198.00;5029657;28;20030;-82
2023/05/23 09:54:05;;;;;;;13.65;3.40;;;;;;;16.48;62.25;102200.81;5037800;28;20018;-83
2023/05/23 09:56:33;;;;;;;12.13;3.22;;;;;;;16.48;61.87;102197.28;5037718;28;20021;-84
2023/05/23 09:59:00;;;;;;;13.55;3.00;;;;;;;16.56;63.06;102205.56;5036825;28;20073;-83
2023/05/23 10:01:28;;;;;;;12.55;2.90;;;;;;;16.61;62.12;102208.72;5034144;28;20029;-83
2023/05/23 10:03:56;;;;;;;9.40;2.97;;;;;;;16.62;62.13;102199.69;5036474;28;20026;-83
2023/05/23 10:06:30;;;;;;;13.63;3.43;;;;;;;16.74;63.13;102204.06;5036530;28;20044;-83
2023/05/23 10:09:01;;;;;;;11.60;3.20;;;;;;;16.77;60.79;102205.63;5036062;28;20037;-83
2023/05/23 10:11:32;;;;;;;11.88;3.53;;;;;;;16.82;60.89;102206.16;5025854;28;20057;-83
2023/05/23 10:14:03;;;;;;;10.77;2.75;;;;;;;16.81;59.16;102197.22;5033245;28;20022;-84
2023/05/23 10:16:59;;;;;;;22.20;3.55;;;;;;;16.91;61.71;102210.78;5029214;28;20057;-84
2023/05/23 10:19:53;;;;;;;14.18;3.38;;;;;;;17.09;61.00;102197.66;5034607;28;20109;-84
2023/05/23 10:22:20;;;;;;;15.98;3.97;;;;;;;17.24;59.10;102197.38;5048904;28;20045;-83
2023/05/23 10:24:47;;;;;;;12.68;3.17;;;;;;;17.33;59.18;102196.59;5038738;28;20061;-84
2023/05/23 10:27:13;;;;;;;13.77;3.53;;;;;;;17.47;60.33;102198.13;5040104;28;20072;-84
2023/05/23 10:29:38;;;;;;;9.50;3.22;;;;;;;17.60;57.36;102206.00;5047082;28;20112;-84
2023/05/23 10:32:05;;;;;;;10.93;3.42;;;;;;;17.87;58.99;102209.06;5036434;28;20083;-84
2023/05/23 10:34:36;;;;;;;13.23;3.47;;;;;;;17.98;57.37;102191.13;5036168;28;20079;-85
2023/05/23 10:37:06;;;;;;;10.63;3.33;;;;;;;17.90;57.85;102203.41;5034600;28;20092;-84
2023/05/23 10:40:00;;;;;;;14.98;3.50;;;;;;;18.16;57.13;102210.19;5037168;28;20039;-84
2023/05/23 10:42:41;;;;;;;11.02;2.88;;;;;;;18.38;57.39;102198.41;5046294;28;20099;-84
2023/05/23 10:45:17;;;;;;;12.30;3.70;;;;;;;18.72;53.74;102198.94;5038917;28;20057;-83
2023/05/23 10:47:43;;;;;;;16.60;3.75;;;;;;;19.18;53.12;102194.75;5039588;28;20038;-84
2023/05/23 10:50:13;;;;;;;12.45;3.17;;;;;;;19.44;50.55;102194.19;5042181;28;20471;-84
2023/05/23 10:52:40;;;;;;;13.45;4.03;;;;;;;19.53;48.56;102195.19;5034745;28;20030;-83
2023/05/23 10:55:13;;;;;;;20.35;3.83;;;;;;;19.77;50.64;102189.38;5039439;28;20083;-84
2023/05/23 10:57:42;;;;;;;10.93;3.30;;;;;;;19.96;46.56;102186.59;5034491;28;20072;-84
2023/05/23 11:00:14;;;;;;;9.10;3.00;;;;;;;20.08;46.55;102172.94;5035647;28;20033;-84
2023/05/23 11:02:53;;;;;;;15.75;3.92;;;;;;;20.50;45.97;102194.03;5027743;28;20465;-84
2023/05/23 11:05:23;;;;;;;13.07;3.30;;;;;;;20.65;45.55;102186.31;5021888;28;20030;-84
2023/05/23 11:08:07;;;;;;;13.07;3.72;;;;;;;21.00;48.89;102185.53;5032418;28;20025;-83
2023/05/23 11:11:00;;;;;;;15.20;3.47;;;;;;;21.16;47.19;102182.13;5035148;28;20060;-85
2023/05/23 11:14:01;;;;;;;15.77;3.92;;;;;;;21.25;46.37;102183.06;5035861;28;20029;-85